sensor_id;sensor_type;location;lat;lon;timestamp;pressure;altitude;pressure_sealevel;temperature;humidity
63535;BME280;55128;50.230;18.944;2023-07-20T00:01:11;97730.63;;;17.85;84.93
63535;BME280;55128;50.230;18.944;2023-07-20T00:06:12;97739.22;;;17.79;85.05
63535;BME280;55128;50.230;18.944;2023-07-20T00:11:12;97768.81;;;17.99;84.94
63535;BME280;55128;50.230;18.944;2023-07-20T00:16:13;97799.78;;;18.03;83.65
63535;BME280;55128;50.230;18.944;2023-07-20T00:21:13;97809.94;;;17.99;82.39
63535;BME280;55128;50.230;18.944;2023-07-20T00:26:14;97819.59;;;18.12;77.79
63535;BME280;55128;50.230;18.944;2023-07-20T00:31:15;97827.81;;;18.30;75.45
63535;BME280;55128;50.230;18.944;2023-07-20T00:36:15;97840.28;;;18.31;75.23
63535;BME280;55128;50.230;18.944;2023-07-20T00:41:16;97846.81;;;18.38;75.11
63535;BME280;55128;50.230;18.944;2023-07-20T00:46:16;97850.59;;;18.25;75.51
63535;BME280;55128;50.230;18.944;2023-07-20T00:51:16;97855.56;;;18.40;76.90
63535;BME280;55128;50.230;18.944;2023-07-20T00:56:17;97857.56;;;18.48;76.15
63535;BME280;55128;50.230;18.944;2023-07-20T01:01:17;97831.53;;;18.38;77.04
63535;BME280;55128;50.230;18.944;2023-07-20T01:06:26;97830.38;;;18.41;78.02
63535;BME280;55128;50.230;18.944;2023-07-20T01:16:38;97770.56;;;18.29;76.91
63535;BME280;55128;50.230;18.944;2023-07-20T01:21:53;97793.72;;;18.20;79.60
63535;BME280;55128;50.230;18.944;2023-07-20T01:32:06;97780.28;;;18.20;80.12
63535;BME280;55128;50.230;18.944;2023-07-20T01:37:08;97786.94;;;18.26;79.47
63535;BME280;55128;50.230;18.944;2023-07-20T01:42:10;97769.41;;;18.12;79.17
63535;BME280;55128;50.230;18.944;2023-07-20T01:47:11;97785.78;;;18.09;78.79
63535;BME280;55128;50.230;18.944;2023-07-20T01:52:11;97794.28;;;18.14;78.61
63535;BME280;55128;50.230;18.944;2023-07-20T01:57:12;97817.19;;;18.18;78.18
63535;BME280;55128;50.230;18.944;2023-07-20T02:02:12;97816.22;;;18.19;77.71
63535;BME280;55128;50.230;18.944;2023-07-20T02:07:12;97818.72;;;18.01;78.60
63535;BME280;55128;50.230;18.944;2023-07-20T02:12:13;97811.38;;;18.03;78.10
63535;BME280;55128;50.230;18.944;2023-07-20T02:17:13;97828.88;;;17.98;76.71
63535;BME280;55128;50.230;18.944;2023-07-20T02:22:13;97840.75;;;17.95;75.92
63535;BME280;55128;50.230;18.944;2023-07-20T02:27:14;97852.38;;;18.05;75.90
63535;BME280;55128;50.230;18.944;2023-07-20T02:32:14;97837.94;;;17.97;77.38
63535;BME280;55128;50.230;18.944;2023-07-20T02:37:14;97837.63;;;17.90;78.30
63535;BME280;55128;50.230;18.944;2023-07-20T02:42:15;97841.50;;;17.76;79.44
63535;BME280;55128;50.230;18.944;2023-07-20T02:47:15;97838.78;;;17.66;79.36
63535;BME280;55128;50.230;18.944;2023-07-20T02:52:15;97843.53;;;17.53;79.21
63535;BME280;55128;50.230;18.944;2023-07-20T02:57:16;97846.22;;;17.53;79.22
63535;BME280;55128;50.230;18.944;2023-07-20T03:02:16;97850.28;;;17.47;78.46
63535;BME280;55128;50.230;18.944;2023-07-20T03:07:16;97848.53;;;17.37;77.86
63535;BME280;55128;50.230;18.944;2023-07-20T03:12:17;97864.47;;;17.17;78.39
63535;BME280;55128;50.230;18.944;2023-07-20T03:17:17;97884.13;;;17.18;77.89
63535;BME280;55128;50.230;18.944;2023-07-20T03:22:18;97888.38;;;16.99;78.08
63535;BME280;55128;50.230;18.944;2023-07-20T03:27:18;97895.81;;;16.96;78.42
63535;BME280;55128;50.230;18.944;2023-07-20T03:32:18;97897.19;;;17.11;78.15
63535;BME280;55128;50.230;18.944;2023-07-20T03:37:19;97906.31;;;17.20;77.69
63535;BME280;55128;50.230;18.944;2023-07-20T03:42:19;97909.31;;;17.26;77.94
63535;BME280;55128;50.230;18.944;2023-07-20T03:47:19;97890.16;;;17.31;76.83
63535;BME280;55128;50.230;18.944;2023-07-20T03:52:20;97906.09;;;17.12;77.19
63535;BME280;55128;50.230;18.944;2023-07-20T03:57:20;97897.34;;;17.31;76.95
63535;BME280;55128;50.230;18.944;2023-07-20T04:02:20;97891.78;;;17.22;76.61
63535;BME280;55128;50.230;18.944;2023-07-20T04:07:20;97897.97;;;17.23;76.50
63535;BME280;55128;50.230;18.944;2023-07-20T04:12:21;97938.69;;;17.28;77.45
63535;BME280;55128;50.230;18.944;2023-07-20T04:17:21;97914.94;;;17.44;76.77
63535;BME280;55128;50.230;18.944;2023-07-20T04:22:21;97898.44;;;17.49;76.17
63535;BME280;55128;50.230;18.944;2023-07-20T04:27:22;97915.25;;;17.72;76.36
63535;BME280;55128;50.230;18.944;2023-07-20T04:32:22;97904.69;;;17.80;75.09
63535;BME280;55128;50.230;18.944;2023-07-20T04:37:23;97895.19;;;17.76;75.63
63535;BME280;55128;50.230;18.944;2023-07-20T04:42:23;97906.94;;;17.96;74.44
63535;BME280;55128;50.230;18.944;2023-07-20T04:47:23;97913.44;;;18.03;75.59
63535;BME280;55128;50.230;18.944;2023-07-20T04:52:24;97927.94;;;18.22;75.54
63535;BME280;55128;50.230;18.944;2023-07-20T04:57:24;97940.41;;;18.33;75.00
63535;BME280;55128;50.230;18.944;2023-07-20T05:02:25;97929.63;;;18.13;75.63
63535;BME280;55128;50.230;18.944;2023-07-20T05:07:25;97930.91;;;17.88;79.19
63535;BME280;55128;50.230;18.944;2023-07-20T05:12:26;97950.19;;;18.03;78.80
63535;BME280;55128;50.230;18.944;2023-07-20T05:17:26;97947.75;;;18.21;78.48
63535;BME280;55128;50.230;18.944;2023-07-20T05:22:26;97964.25;;;18.47;78.66
63535;BME280;55128;50.230;18.944;2023-07-20T05:27:27;97974.56;;;19.21;77.02
63535;BME280;55128;50.230;18.944;2023-07-20T05:32:27;97971.03;;;19.11;74.27
63535;BME280;55128;50.230;18.944;2023-07-20T05:37:28;97977.97;;;18.94;75.27
63535;BME280;55128;50.230;18.944;2023-07-20T05:42:28;97969.19;;;19.41;72.64
63535;BME280;55128;50.230;18.944;2023-07-20T05:47:28;97963.81;;;19.51;72.75
63535;BME280;55128;50.230;18.944;2023-07-20T05:52:29;97978.50;;;19.66;71.87
63535;BME280;55128;50.230;18.944;2023-07-20T05:57:29;97971.31;;;21.61;65.04
63535;BME280;55128;50.230;18.944;2023-07-20T06:02:30;97984.91;;;22.47;64.46
63535;BME280;55128;50.230;18.944;2023-07-20T06:07:30;97988.00;;;24.82;55.76
63535;BME280;55128;50.230;18.944;2023-07-20T06:12:31;97993.91;;;25.95;50.70
63535;BME280;55128;50.230;18.944;2023-07-20T06:17:32;97994.69;;;27.44;45.22
63535;BME280;55128;50.230;18.944;2023-07-20T06:22:33;97999.28;;;28.37;43.69
63535;BME280;55128;50.230;18.944;2023-07-20T06:27:33;97985.69;;;28.85;40.65
63535;BME280;55128;50.230;18.944;2023-07-20T06:32:33;97989.84;;;29.22;39.60
63535;BME280;55128;50.230;18.944;2023-07-20T06:37:34;97996.88;;;27.77;42.01
63535;BME280;55128;50.230;18.944;2023-07-20T06:42:35;97995.91;;;27.85;42.46
63535;BME280;55128;50.230;18.944;2023-07-20T06:47:38;98002.88;;;26.93;43.36
63535;BME280;55128;50.230;18.944;2023-07-20T06:52:38;97994.16;;;25.85;45.33
63535;BME280;55128;50.230;18.944;2023-07-20T06:57:39;97992.69;;;24.97;47.90
63535;BME280;55128;50.230;18.944;2023-07-20T07:02:40;97996.28;;;27.02;44.87
63535;BME280;55128;50.230;18.944;2023-07-20T07:07:40;97996.19;;;29.36;36.51
63535;BME280;55128;50.230;18.944;2023-07-20T07:12:40;97993.09;;;30.53;35.26
63535;BME280;55128;50.230;18.944;2023-07-20T07:17:41;98001.28;;;28.91;36.37
63535;BME280;55128;50.230;18.944;2023-07-20T07:22:44;98008.69;;;29.72;36.70
63535;BME280;55128;50.230;18.944;2023-07-20T07:27:45;98007.22;;;30.16;34.04
63535;BME280;55128;50.230;18.944;2023-07-20T07:32:45;98016.38;;;31.54;32.46
63535;BME280;55128;50.230;18.944;2023-07-20T07:37:46;98017.38;;;30.36;35.00
63535;BME280;55128;50.230;18.944;2023-07-20T07:42:47;98017.97;;;32.25;31.51
63535;BME280;55128;50.230;18.944;2023-07-20T07:47:47;98033.16;;;33.76;28.35
63535;BME280;55128;50.230;18.944;2023-07-20T07:52:48;98034.84;;;32.29;30.71
63535;BME280;55128;50.230;18.944;2023-07-20T07:57:48;98028.94;;;29.84;34.11
63535;BME280;55128;50.230;18.944;2023-07-20T08:02:50;98034.84;;;28.78;36.17
63535;BME280;55128;50.230;18.944;2023-07-20T08:07:50;98029.19;;;27.52;38.21
63535;BME280;55128;50.230;18.944;2023-07-20T08:12:51;98022.09;;;27.06;40.49
63535;BME280;55128;50.230;18.944;2023-07-20T08:17:51;98033.72;;;28.38;38.93
63535;BME280;55128;50.230;18.944;2023-07-20T08:22:54;98035.31;;;31.62;32.71
63535;BME280;55128;50.230;18.944;2023-07-20T08:27:54;98037.38;;;30.43;32.95
63535;BME280;55128;50.230;18.944;2023-07-20T08:32:54;98047.97;;;28.33;37.79
63535;BME280;55128;50.230;18.944;2023-07-20T08:37:55;98044.31;;;29.24;38.29
63535;BME280;55128;50.230;18.944;2023-07-20T08:42:58;98044.00;;;31.46;33.05
63535;BME280;55128;50.230;18.944;2023-07-20T08:48:00;98055.47;;;33.37;30.69
63535;BME280;55128;50.230;18.944;2023-07-20T08:53:01;98057.34;;;33.74;29.90
63535;BME280;55128;50.230;18.944;2023-07-20T08:58:04;98058.94;;;34.59;28.07
63535;BME280;55128;50.230;18.944;2023-07-20T09:03:08;98063.09;;;36.35;26.41
63535;BME280;55128;50.230;18.944;2023-07-20T09:08:10;98060.34;;;32.36;30.41
63535;BME280;55128;50.230;18.944;2023-07-20T09:13:14;98049.59;;;30.07;34.61
63535;BME280;55128;50.230;18.944;2023-07-20T09:18:30;98051.81;;;31.10;34.40
63535;BME280;55128;50.230;18.944;2023-07-20T09:23:35;98044.69;;;30.76;34.28
63535;BME280;55128;50.230;18.944;2023-07-20T09:28:42;98053.28;;;31.90;32.30
63535;BME280;55128;50.230;18.944;2023-07-20T09:33:45;98046.16;;;32.39;31.48
63535;BME280;55128;50.230;18.944;2023-07-20T09:38:45;98037.34;;;31.28;32.76
63535;BME280;55128;50.230;18.944;2023-07-20T09:43:46;98045.25;;;28.96;36.88
63535;BME280;55128;50.230;18.944;2023-07-20T09:48:53;98043.41;;;27.18;39.91
63535;BME280;55128;50.230;18.944;2023-07-20T09:53:56;98053.25;;;28.63;40.57
63535;BME280;55128;50.230;18.944;2023-07-20T09:58:57;98047.69;;;29.26;37.01
63535;BME280;55128;50.230;18.944;2023-07-20T10:03:58;98044.59;;;28.94;37.46
63535;BME280;55128;50.230;18.944;2023-07-20T10:09:02;98040.63;;;28.62;38.39
63535;BME280;55128;50.230;18.944;2023-07-20T10:14:04;98038.59;;;28.71;38.64
63535;BME280;55128;50.230;18.944;2023-07-20T10:19:33;98028.78;;;29.24;38.03
63535;BME280;55128;50.230;18.944;2023-07-20T10:24:35;98037.41;;;28.23;38.39
63535;BME280;55128;50.230;18.944;2023-07-20T10:29:36;98049.38;;;27.58;38.23
63535;BME280;55128;50.230;18.944;2023-07-20T10:34:38;98038.34;;;27.87;38.56
63535;BME280;55128;50.230;18.944;2023-07-20T10:39:39;98042.41;;;28.48;37.13
63535;BME280;55128;50.230;18.944;2023-07-20T10:44:40;98032.28;;;28.42;38.00
63535;BME280;55128;50.230;18.944;2023-07-20T10:49:58;98026.56;;;27.87;38.69
63535;BME280;55128;50.230;18.944;2023-07-20T10:55:18;98022.59;;;28.11;37.09
63535;BME280;55128;50.230;18.944;2023-07-20T11:00:20;98007.81;;;27.99;35.93
63535;BME280;55128;50.230;18.944;2023-07-20T11:05:33;98012.41;;;27.77;35.81
63535;BME280;55128;50.230;18.944;2023-07-20T11:10:37;98017.09;;;27.83;35.89
63535;BME280;55128;50.230;18.944;2023-07-20T11:20:57;98007.28;;;28.38;34.43
63535;BME280;55128;50.230;18.944;2023-07-20T11:25:58;98000.28;;;28.01;34.10
63535;BME280;55128;50.230;18.944;2023-07-20T11:31:00;98001.81;;;28.10;35.31
63535;BME280;55128;50.230;18.944;2023-07-20T11:36:00;97992.66;;;27.96;35.19
63535;BME280;55128;50.230;18.944;2023-07-20T11:41:03;97994.28;;;28.12;35.53
63535;BME280;55128;50.230;18.944;2023-07-20T11:46:05;97992.56;;;28.11;35.88
63535;BME280;55128;50.230;18.944;2023-07-20T11:51:05;97981.81;;;28.03;34.47
63535;BME280;55128;50.230;18.944;2023-07-20T11:56:07;97986.22;;;27.82;35.31
63535;BME280;55128;50.230;18.944;2023-07-20T12:01:08;97983.44;;;27.76;36.43
63535;BME280;55128;50.230;18.944;2023-07-20T12:06:09;97981.00;;;27.23;37.22
63535;BME280;55128;50.230;18.944;2023-07-20T12:11:10;97979.94;;;27.02;37.50
63535;BME280;55128;50.230;18.944;2023-07-20T12:16:12;97979.34;;;27.22;36.70
63535;BME280;55128;50.230;18.944;2023-07-20T12:21:13;97977.84;;;27.04;37.49
63535;BME280;55128;50.230;18.944;2023-07-20T12:26:14;97964.19;;;27.19;36.54
63535;BME280;55128;50.230;18.944;2023-07-20T12:31:15;97973.34;;;26.75;37.63
63535;BME280;55128;50.230;18.944;2023-07-20T12:36:15;97965.69;;;26.41;38.23
63535;BME280;55128;50.230;18.944;2023-07-20T12:41:16;97963.06;;;26.92;38.14
63535;BME280;55128;50.230;18.944;2023-07-20T12:46:17;97974.31;;;27.04;37.34
63535;BME280;55128;50.230;18.944;2023-07-20T12:51:18;97977.03;;;27.04;36.42
63535;BME280;55128;50.230;18.944;2023-07-20T12:56:18;97968.50;;;27.28;36.09
63535;BME280;55128;50.230;18.944;2023-07-20T13:01:19;97970.69;;;26.67;36.74
63535;BME280;55128;50.230;18.944;2023-07-20T13:06:19;97961.81;;;26.94;35.90
63535;BME280;55128;50.230;18.944;2023-07-20T13:11:20;97966.13;;;27.04;35.22
63535;BME280;55128;50.230;18.944;2023-07-20T13:16:20;97963.06;;;27.13;36.58
63535;BME280;55128;50.230;18.944;2023-07-20T13:21:20;97947.69;;;26.40;37.01
63535;BME280;55128;50.230;18.944;2023-07-20T13:26:22;97952.31;;;25.86;37.18
63535;BME280;55128;50.230;18.944;2023-07-20T13:31:23;97950.72;;;26.45;37.48
63535;BME280;55128;50.230;18.944;2023-07-20T13:36:23;97952.22;;;26.62;37.30
63535;BME280;55128;50.230;18.944;2023-07-20T13:41:23;97944.97;;;26.69;36.92
63535;BME280;55128;50.230;18.944;2023-07-20T13:46:25;97929.00;;;26.36;37.95
63535;BME280;55128;50.230;18.944;2023-07-20T13:51:25;97933.47;;;25.85;38.04
63535;BME280;55128;50.230;18.944;2023-07-20T13:56:27;97936.56;;;25.82;38.54
63535;BME280;55128;50.230;18.944;2023-07-20T14:01:27;97945.13;;;25.55;38.97
63535;BME280;55128;50.230;18.944;2023-07-20T14:06:32;97980.59;;;25.08;39.16
63535;BME280;55128;50.230;18.944;2023-07-20T14:11:32;97995.31;;;24.82;39.56
63535;BME280;55128;50.230;18.944;2023-07-20T14:16:33;97996.84;;;24.20;50.71
63535;BME280;55128;50.230;18.944;2023-07-20T14:21:33;97959.78;;;23.31;58.76
63535;BME280;55128;50.230;18.944;2023-07-20T14:26:34;97960.59;;;23.97;59.48
63535;BME280;55128;50.230;18.944;2023-07-20T14:31:35;97980.28;;;23.66;61.76
63535;BME280;55128;50.230;18.944;2023-07-20T14:36:35;98005.47;;;23.25;60.03
63535;BME280;55128;50.230;18.944;2023-07-20T14:41:35;98002.44;;;22.78;61.73
63535;BME280;55128;50.230;18.944;2023-07-20T14:46:36;98015.56;;;22.56;61.37
63535;BME280;55128;50.230;18.944;2023-07-20T14:51:36;98020.53;;;22.43;60.75
63535;BME280;55128;50.230;18.944;2023-07-20T14:56:50;98015.06;;;21.46;61.59
63535;BME280;55128;50.230;18.944;2023-07-20T15:01:52;98007.25;;;21.25;62.75
63535;BME280;55128;50.230;18.944;2023-07-20T15:06:53;98009.81;;;21.63;63.69
63535;BME280;55128;50.230;18.944;2023-07-20T15:11:54;98005.91;;;21.57;62.97
63535;BME280;55128;50.230;18.944;2023-07-20T15:16:55;98002.97;;;21.94;61.08
63535;BME280;55128;50.230;18.944;2023-07-20T15:21:55;98008.41;;;22.47;59.57
63535;BME280;55128;50.230;18.944;2023-07-20T15:26:56;98011.66;;;22.59;58.79
63535;BME280;55128;50.230;18.944;2023-07-20T15:31:57;98008.50;;;22.71;58.13
63535;BME280;55128;50.230;18.944;2023-07-20T15:36:58;98008.84;;;23.19;57.66
63535;BME280;55128;50.230;18.944;2023-07-20T15:41:58;98016.88;;;23.03;55.43
63535;BME280;55128;50.230;18.944;2023-07-20T15:46:59;98017.19;;;22.83;55.57
63535;BME280;55128;50.230;18.944;2023-07-20T15:51:59;98017.69;;;22.79;54.99
63535;BME280;55128;50.230;18.944;2023-07-20T15:57:00;98011.25;;;22.80;55.37
63535;BME280;55128;50.230;18.944;2023-07-20T16:02:00;98017.34;;;22.82;55.33
63535;BME280;55128;50.230;18.944;2023-07-20T16:07:01;98021.41;;;22.86;55.20
63535;BME280;55128;50.230;18.944;2023-07-20T16:12:01;98017.84;;;22.85;54.67
63535;BME280;55128;50.230;18.944;2023-07-20T16:17:01;98011.72;;;23.09;53.45
63535;BME280;55128;50.230;18.944;2023-07-20T16:22:02;98016.19;;;22.93;52.34
63535;BME280;55128;50.230;18.944;2023-07-20T16:27:04;98016.59;;;23.06;50.33
63535;BME280;55128;50.230;18.944;2023-07-20T16:32:04;98023.94;;;22.87;50.90
63535;BME280;55128;50.230;18.944;2023-07-20T16:37:05;98023.78;;;22.81;49.98
63535;BME280;55128;50.230;18.944;2023-07-20T16:42:05;98028.38;;;22.88;50.43
63535;BME280;55128;50.230;18.944;2023-07-20T16:47:07;98037.06;;;23.08;49.51
63535;BME280;55128;50.230;18.944;2023-07-20T16:52:08;98033.31;;;23.01;49.86
63535;BME280;55128;50.230;18.944;2023-07-20T16:57:08;98030.44;;;23.03;49.23
63535;BME280;55128;50.230;18.944;2023-07-20T17:02:09;98036.97;;;22.84;48.89
63535;BME280;55128;50.230;18.944;2023-07-20T17:07:09;98042.22;;;22.85;48.92
63535;BME280;55128;50.230;18.944;2023-07-20T17:12:10;98041.81;;;22.72;48.75
63535;BME280;55128;50.230;18.944;2023-07-20T17:17:10;98045.34;;;22.64;48.31
63535;BME280;55128;50.230;18.944;2023-07-20T17:22:10;98047.16;;;22.56;48.26
63535;BME280;55128;50.230;18.944;2023-07-20T17:27:11;98046.59;;;22.44;48.17
63535;BME280;55128;50.230;18.944;2023-07-20T17:32:11;98057.00;;;22.12;49.03
63535;BME280;55128;50.230;18.944;2023-07-20T17:37:11;98054.66;;;22.18;49.40
63535;BME280;55128;50.230;18.944;2023-07-20T17:42:16;98050.75;;;21.94;49.54
63535;BME280;55128;50.230;18.944;2023-07-20T17:47:16;98061.47;;;21.78;49.15
63535;BME280;55128;50.230;18.944;2023-07-20T17:52:17;98057.13;;;21.67;48.70
63535;BME280;55128;50.230;18.944;2023-07-20T17:57:17;98064.41;;;21.66;49.54
63535;BME280;55128;50.230;18.944;2023-07-20T18:02:17;98066.09;;;21.85;50.01
63535;BME280;55128;50.230;18.944;2023-07-20T18:07:18;98068.78;;;21.67;50.65
63535;BME280;55128;50.230;18.944;2023-07-20T18:12:18;98080.13;;;21.71;51.09
63535;BME280;55128;50.230;18.944;2023-07-20T18:17:18;98065.78;;;21.52;51.65
63535;BME280;55128;50.230;18.944;2023-07-20T18:22:19;98075.44;;;21.55;52.13
63535;BME280;55128;50.230;18.944;2023-07-20T18:27:19;98073.91;;;21.43;52.82
63535;BME280;55128;50.230;18.944;2023-07-20T18:32:20;98079.34;;;21.15;55.62
63535;BME280;55128;50.230;18.944;2023-07-20T18:37:20;98082.47;;;20.92;56.44
63535;BME280;55128;50.230;18.944;2023-07-20T18:42:20;98086.75;;;20.38;57.97
63535;BME280;55128;50.230;18.944;2023-07-20T18:47:21;98083.41;;;20.16;59.34
63535;BME280;55128;50.230;18.944;2023-07-20T18:52:22;98095.22;;;19.86;60.18
63535;BME280;55128;50.230;18.944;2023-07-20T18:57:22;98096.19;;;19.75;60.93
63535;BME280;55128;50.230;18.944;2023-07-20T19:02:23;98105.63;;;19.40;61.81
63535;BME280;55128;50.230;18.944;2023-07-20T19:07:23;98103.47;;;19.25;63.25
63535;BME280;55128;50.230;18.944;2023-07-20T19:12:24;98116.00;;;18.95;63.01
63535;BME280;55128;50.230;18.944;2023-07-20T19:17:28;98117.41;;;18.68;63.76
63535;BME280;55128;50.230;18.944;2023-07-20T19:22:29;98122.91;;;18.36;64.73
63535;BME280;55128;50.230;18.944;2023-07-20T19:27:29;98125.38;;;18.27;65.92
63535;BME280;55128;50.230;18.944;2023-07-20T19:32:30;98138.28;;;18.13;66.73
63535;BME280;55128;50.230;18.944;2023-07-20T19:37:30;98133.63;;;17.94;67.04
63535;BME280;55128;50.230;18.944;2023-07-20T19:42:30;98129.63;;;17.88;68.19
63535;BME280;55128;50.230;18.944;2023-07-20T19:47:31;98133.16;;;17.45;70.27
63535;BME280;55128;50.230;18.944;2023-07-20T19:52:31;98135.16;;;17.32;70.78
63535;BME280;55128;50.230;18.944;2023-07-20T19:57:32;98135.03;;;17.33;70.65
63535;BME280;55128;50.230;18.944;2023-07-20T20:02:32;98144.66;;;17.24;70.99
63535;BME280;55128;50.230;18.944;2023-07-20T20:07:32;98138.44;;;17.24;71.69
63535;BME280;55128;50.230;18.944;2023-07-20T20:12:34;98149.44;;;16.98;73.09
63535;BME280;55128;50.230;18.944;2023-07-20T20:17:34;98157.88;;;16.82;73.92
63535;BME280;55128;50.230;18.944;2023-07-20T20:22:36;98145.53;;;16.91;73.69
63535;BME280;55128;50.230;18.944;2023-07-20T20:27:36;98145.81;;;16.99;73.38
63535;BME280;55128;50.230;18.944;2023-07-20T20:32:39;98149.31;;;16.77;74.99
63535;BME280;55128;50.230;18.944;2023-07-20T20:37:44;98151.06;;;17.01;74.56
63535;BME280;55128;50.230;18.944;2023-07-20T20:42:44;98149.81;;;17.05;74.78
63535;BME280;55128;50.230;18.944;2023-07-20T20:47:45;98147.88;;;17.07;74.75
63535;BME280;55128;50.230;18.944;2023-07-20T20:52:46;98153.59;;;17.02;75.32
63535;BME280;55128;50.230;18.944;2023-07-20T20:57:47;98147.03;;;16.95;76.22
63535;BME280;55128;50.230;18.944;2023-07-20T21:02:51;98152.72;;;17.13;75.33
63535;BME280;55128;50.230;18.944;2023-07-20T21:07:52;98145.56;;;17.14;76.11
63535;BME280;55128;50.230;18.944;2023-07-20T21:12:52;98151.16;;;17.10;75.96
63535;BME280;55128;50.230;18.944;2023-07-20T21:17:52;98151.16;;;17.10;76.02
63535;BME280;55128;50.230;18.944;2023-07-20T21:22:53;98150.16;;;17.23;76.49
63535;BME280;55128;50.230;18.944;2023-07-20T21:27:53;98149.78;;;17.39;76.28
63535;BME280;55128;50.230;18.944;2023-07-20T21:32:54;98156.22;;;17.47;75.72
63535;BME280;55128;50.230;18.944;2023-07-20T21:37:55;98153.19;;;17.41;76.13
63535;BME280;55128;50.230;18.944;2023-07-20T21:42:55;98157.94;;;17.37;76.14
63535;BME280;55128;50.230;18.944;2023-07-20T21:47:58;98161.38;;;17.28;76.48
63535;BME280;55128;50.230;18.944;2023-07-20T21:52:59;98163.09;;;17.18;76.93
63535;BME280;55128;50.230;18.944;2023-07-20T21:58:00;98166.13;;;17.13;76.87
63535;BME280;55128;50.230;18.944;2023-07-20T22:03:00;98164.56;;;16.99;77.05
63535;BME280;55128;50.230;18.944;2023-07-20T22:08:00;98172.34;;;16.91;77.80
63535;BME280;55128;50.230;18.944;2023-07-20T22:13:01;98174.16;;;16.79;78.25
63535;BME280;55128;50.230;18.944;2023-07-20T22:18:02;98165.88;;;16.71;79.08
63535;BME280;55128;50.230;18.944;2023-07-20T22:23:02;98165.25;;;16.56;78.41
63535;BME280;55128;50.230;18.944;2023-07-20T22:28:03;98166.44;;;16.41;79.11
63535;BME280;55128;50.230;18.944;2023-07-20T22:33:03;98165.28;;;16.21;79.84
63535;BME280;55128;50.230;18.944;2023-07-20T22:38:04;98168.31;;;16.05;80.19
63535;BME280;55128;50.230;18.944;2023-07-20T22:43:04;98170.94;;;15.93;80.72
63535;BME280;55128;50.230;18.944;2023-07-20T22:48:04;98168.31;;;15.81;81.14
63535;BME280;55128;50.230;18.944;2023-07-20T22:53:04;98170.38;;;15.77;81.43
63535;BME280;55128;50.230;18.944;2023-07-20T22:58:05;98171.00;;;15.68;80.64
63535;BME280;55128;50.230;18.944;2023-07-20T23:03:05;98174.47;;;15.57;81.48
63535;BME280;55128;50.230;18.944;2023-07-20T23:08:05;98159.16;;;15.35;82.65
63535;BME280;55128;50.230;18.944;2023-07-20T23:13:06;98147.63;;;15.22;82.57
63535;BME280;55128;50.230;18.944;2023-07-20T23:18:07;98153.00;;;15.09;83.92
63535;BME280;55128;50.230;18.944;2023-07-20T23:23:08;98157.69;;;15.18;83.59
63535;BME280;55128;50.230;18.944;2023-07-20T23:28:08;98159.75;;;15.14;83.03
63535;BME280;55128;50.230;18.944;2023-07-20T23:33:08;98158.91;;;15.01;83.01
63535;BME280;55128;50.230;18.944;2023-07-20T23:38:09;98158.69;;;15.04;83.01
63535;BME280;55128;50.230;18.944;2023-07-20T23:43:09;98160.47;;;14.80;84.07
63535;BME280;55128;50.230;18.944;2023-07-20T23:48:09;98152.25;;;14.70;84.20
63535;BME280;55128;50.230;18.944;2023-07-20T23:53:12;98152.00;;;14.60;84.66
63535;BME280;55128;50.230;18.944;2023-07-20T23:58:12;98152.09;;;14.71;84.09
